createdAt,value
2023-04-08T00:00:54.030Z,54.78
2023-04-08T00:03:21.893Z,53.67
2023-04-08T00:05:49.535Z,55.34
2023-04-08T00:08:16.976Z,55.50
2023-04-08T00:10:44.642Z,54.22
2023-04-08T00:13:12.160Z,57.43
2023-04-08T00:15:39.596Z,56.98
2023-04-08T00:18:07.556Z,57.59
2023-04-08T00:20:35.361Z,56.66
2023-04-08T00:23:02.884Z,55.57
2023-04-08T00:25:31.375Z,57.04
2023-04-08T00:27:58.778Z,56.40
2023-04-08T00:30:28.093Z,57.53
2023-04-08T00:32:55.926Z,58.04
2023-04-08T00:35:23.578Z,57.06
2023-04-08T00:37:51.180Z,56.67
2023-04-08T00:40:18.927Z,56.43
2023-04-08T00:42:46.589Z,56.55
2023-04-08T00:45:14.290Z,58.28
2023-04-08T00:47:42.055Z,58.42
2023-04-08T00:50:10.850Z,56.83
2023-04-08T00:52:38.376Z,56.87
2023-04-08T00:55:06.605Z,56.41
2023-04-08T00:57:34.410Z,55.98
2023-04-08T01:00:01.939Z,56.44
2023-04-08T01:02:46.130Z,57.36
2023-04-08T01:05:21.163Z,56.82
2023-04-08T01:07:50.256Z,57.69
2023-04-08T01:10:21.535Z,57.26
2023-04-08T01:12:56.956Z,56.83
2023-04-08T01:15:26.464Z,58.58
2023-04-08T01:17:56.330Z,60.22
2023-04-08T01:20:25.340Z,58.96
2023-04-08T01:23:07.354Z,59.12
2023-04-08T01:25:36.889Z,58.95
2023-04-08T01:28:07.637Z,58.61
2023-04-08T01:30:35.915Z,59.06
2023-04-08T01:33:04.309Z,60.03
2023-04-08T01:35:32.307Z,59.73
2023-04-08T01:38:00.606Z,59.20
2023-04-08T01:40:28.018Z,59.25
2023-04-08T01:42:59.251Z,58.85
2023-04-08T01:45:28.296Z,60.37
2023-04-08T01:47:57.212Z,59.11
2023-04-08T01:50:25.813Z,58.71
2023-04-08T01:52:55.302Z,58.26
2023-04-08T01:55:23.105Z,58.82
2023-04-08T01:57:52.285Z,59.21
2023-04-08T02:00:23.035Z,57.49
2023-04-08T02:02:52.149Z,58.00
2023-04-08T02:05:20.012Z,59.10
2023-04-08T02:07:48.531Z,58.28
2023-04-08T02:10:16.362Z,60.77
2023-04-08T02:12:44.440Z,60.13
2023-04-08T02:15:13.290Z,58.98
2023-04-08T02:17:51.693Z,58.77
2023-04-08T02:20:51.442Z,58.95
2023-04-08T02:23:24.686Z,57.80
2023-04-08T02:25:53.410Z,59.55
2023-04-08T02:28:21.239Z,57.70
2023-04-08T02:30:50.595Z,59.49
2023-04-08T02:33:20.433Z,58.44
2023-04-08T02:35:50.093Z,59.15
2023-04-08T02:38:17.929Z,60.77
2023-04-08T02:40:45.702Z,60.55
2023-04-08T02:43:13.121Z,60.87
2023-04-08T02:45:44.547Z,60.43
2023-04-08T02:48:12.125Z,62.14
2023-04-08T02:50:40.679Z,61.21
2023-04-08T02:53:09.342Z,60.17
2023-04-08T02:55:37.071Z,59.32
2023-04-08T02:58:04.464Z,60.04
2023-04-08T03:00:32.144Z,60.29
2023-04-08T03:02:59.922Z,61.80
2023-04-08T03:05:27.557Z,61.03
2023-04-08T03:07:55.420Z,60.71
2023-04-08T03:10:22.856Z,61.43
2023-04-08T03:12:50.375Z,59.36
2023-04-08T03:15:18.268Z,59.30
2023-04-08T03:17:45.913Z,58.80
2023-04-08T03:20:13.483Z,57.82
2023-04-08T03:22:41.197Z,58.15
2023-04-08T03:25:09.085Z,56.76
2023-04-08T03:27:36.552Z,58.88
2023-04-08T03:30:04.625Z,57.98
2023-04-08T03:32:33.074Z,57.60
2023-04-08T03:35:00.538Z,58.54
2023-04-08T03:37:28.193Z,59.60
2023-04-08T03:39:56.166Z,57.79
2023-04-08T03:42:23.582Z,56.88
2023-04-08T03:44:51.390Z,56.96
2023-04-08T03:47:18.782Z,56.15
2023-04-08T03:49:46.161Z,56.00
2023-04-08T03:52:13.832Z,57.62
2023-04-08T03:54:41.276Z,58.44
2023-04-08T03:57:08.680Z,59.77
2023-04-08T03:59:36.799Z,59.58
2023-04-08T04:02:04.269Z,57.30
2023-04-08T04:04:32.077Z,56.67
2023-04-08T04:06:59.518Z,58.05
2023-04-08T04:09:27.080Z,57.44
2023-04-08T04:11:54.753Z,58.37
2023-04-08T04:14:22.116Z,58.57
2023-04-08T04:16:49.514Z,57.43
2023-04-08T04:19:18.424Z,58.08
2023-04-08T04:21:45.816Z,58.55
2023-04-08T04:24:14.167Z,58.60
2023-04-08T04:26:42.106Z,58.39
2023-04-08T04:29:09.505Z,57.28
2023-04-08T04:31:37.326Z,57.93
2023-04-08T04:34:05.012Z,58.04
2023-04-08T04:36:32.420Z,57.54
2023-04-08T04:38:59.825Z,57.19
2023-04-08T04:41:27.749Z,58.69
2023-04-08T04:43:55.327Z,59.06
2023-04-08T04:46:22.884Z,58.79
2023-04-08T04:48:51.498Z,60.22
2023-04-08T04:51:19.052Z,59.17
2023-04-08T04:53:46.447Z,58.95
2023-04-08T04:56:14.098Z,58.96
2023-04-08T04:58:42.072Z,60.30
2023-04-08T05:01:09.517Z,59.81
2023-04-08T05:03:37.251Z,61.02
2023-04-08T05:06:04.767Z,61.15
2023-04-08T05:08:32.157Z,61.49
2023-04-08T05:11:02.174Z,60.88
2023-04-08T05:13:29.835Z,60.32
2023-04-08T05:15:57.253Z,59.96
2023-04-08T05:18:25.252Z,60.95
2023-04-08T05:20:52.800Z,60.10
2023-04-08T05:23:20.338Z,60.22
2023-04-08T05:25:47.995Z,60.19
2023-04-08T05:28:15.580Z,60.23
2023-04-08T05:30:43.018Z,60.10
2023-04-08T05:33:11.058Z,60.37
2023-04-08T05:35:38.596Z,61.13
2023-04-08T05:38:06.758Z,62.11
2023-04-08T05:40:34.508Z,61.31
2023-04-08T05:43:01.901Z,61.99
2023-04-08T05:45:30.617Z,62.55
2023-04-08T05:47:58.333Z,61.47
2023-04-08T05:50:25.800Z,63.51
2023-04-08T05:52:53.200Z,61.15
2023-04-08T05:55:20.989Z,61.13
2023-04-08T05:57:48.403Z,60.19
2023-04-08T06:00:16.965Z,60.49
2023-04-08T06:02:44.816Z,63.13
2023-04-08T06:05:12.353Z,63.21
2023-04-08T06:07:39.826Z,61.47
2023-04-08T06:10:08.371Z,61.21
2023-04-08T06:12:37.345Z,62.12
2023-04-08T06:15:06.090Z,61.57
2023-04-08T06:17:36.454Z,64.07
2023-04-08T06:20:05.379Z,62.77
2023-04-08T06:22:33.046Z,62.50
2023-04-08T06:25:00.873Z,63.07
2023-04-08T06:27:28.494Z,64.67
2023-04-08T06:29:56.093Z,62.18
2023-04-08T06:32:23.913Z,62.16
2023-04-08T06:34:51.541Z,63.21
2023-04-08T06:37:18.908Z,64.16
2023-04-08T06:39:46.626Z,64.12
2023-04-08T06:42:14.037Z,64.06
2023-04-08T06:44:43.914Z,63.68
2023-04-08T06:47:11.586Z,66.54
2023-04-08T06:49:38.980Z,64.47
2023-04-08T06:52:06.995Z,63.67
2023-04-08T06:54:34.765Z,64.36
2023-04-08T06:57:02.171Z,63.75
2023-04-08T06:59:30.484Z,64.27
2023-04-08T07:01:58.326Z,64.78
2023-04-08T07:04:26.053Z,67.89
2023-04-08T07:06:53.529Z,65.38
2023-04-08T07:09:21.220Z,65.07
2023-04-08T07:11:48.628Z,63.33
2023-04-08T07:14:16.051Z,64.77
2023-04-08T07:16:43.794Z,64.05
2023-04-08T07:19:11.850Z,64.14
2023-04-08T07:21:39.208Z,66.11
2023-04-08T07:24:07.292Z,67.79
2023-04-08T07:26:34.762Z,64.99
2023-04-08T07:29:02.196Z,63.12
2023-04-08T07:31:29.910Z,63.17
2023-04-08T07:33:57.346Z,63.73
2023-04-08T07:36:25.152Z,65.37
2023-04-08T07:38:52.862Z,63.53
2023-04-08T07:41:21.164Z,62.27
2023-04-08T07:43:48.560Z,62.16
2023-04-08T07:46:16.331Z,63.15
2023-04-08T07:48:43.789Z,63.57
2023-04-08T07:51:11.716Z,65.57
2023-04-08T07:53:40.496Z,63.88
2023-04-08T07:56:15.457Z,62.49
2023-04-08T07:58:43.326Z,63.09
2023-04-08T08:01:18.989Z,63.80
2023-04-08T08:03:48.013Z,63.31
2023-04-08T08:06:15.811Z,63.54
2023-04-08T08:08:43.389Z,63.57
2023-04-08T08:11:11.119Z,63.66
2023-04-08T08:13:38.655Z,63.24
2023-04-08T08:16:09.148Z,62.48
2023-04-08T08:18:40.851Z,62.22
2023-04-08T08:21:08.920Z,63.62
2023-04-08T08:23:37.840Z,62.32
2023-04-08T08:26:12.227Z,66.76
2023-04-08T08:28:40.388Z,68.07
2023-04-08T08:31:07.914Z,65.34
2023-04-08T08:33:35.761Z,65.60
2023-04-08T08:36:05.623Z,65.94
2023-04-08T08:38:33.574Z,64.27
2023-04-08T08:41:01.658Z,64.10
2023-04-08T08:43:29.355Z,63.48
2023-04-08T08:45:56.839Z,65.61
2023-04-08T08:48:24.403Z,64.32
2023-04-08T08:50:52.079Z,68.62
2023-04-08T08:53:20.685Z,65.67
2023-04-08T08:58:19.523Z,66.67
2023-04-08T09:00:47.024Z,63.40
2023-04-08T09:03:23.553Z,62.60
2023-04-08T09:05:56.191Z,63.52
2023-04-08T09:08:25.602Z,64.39
2023-04-08T09:10:54.470Z,63.77
2023-04-08T09:13:25.005Z,64.76
2023-04-08T09:16:05.170Z,63.63
2023-04-08T09:18:33.666Z,62.72
2023-04-08T09:21:02.379Z,63.44
2023-04-08T09:23:47.742Z,65.80
2023-04-08T09:26:22.218Z,62.83
2023-04-08T09:29:10.993Z,65.18
2023-04-08T09:31:42.511Z,64.11
2023-04-08T09:34:12.008Z,63.91
2023-04-08T09:36:39.431Z,63.98
2023-04-08T09:39:07.716Z,64.81
2023-04-08T09:41:36.204Z,64.67
2023-04-08T09:44:06.603Z,65.27
2023-04-08T09:46:43.725Z,63.75
2023-04-08T09:49:13.416Z,65.66
2023-04-08T09:51:45.599Z,65.34
2023-04-08T09:54:14.953Z,68.49
2023-04-08T09:57:03.609Z,67.81
2023-04-08T09:59:33.999Z,65.72
2023-04-08T10:02:07.552Z,66.64
2023-04-08T10:04:39.622Z,66.32
2023-04-08T10:07:07.583Z,65.77
2023-04-08T10:09:35.697Z,63.76
2023-04-08T10:12:04.429Z,64.11
2023-04-08T10:14:32.620Z,64.66
2023-04-08T10:17:26.622Z,64.96
2023-04-08T10:19:54.194Z,64.08
2023-04-08T10:22:33.849Z,65.64
2023-04-08T10:25:32.910Z,63.58
2023-04-08T10:28:01.984Z,64.74
2023-04-08T10:30:29.253Z,63.84
2023-04-08T10:32:57.607Z,66.08
2023-04-08T10:35:32.009Z,65.45
2023-04-08T10:37:59.842Z,65.13
2023-04-08T10:40:27.931Z,64.12
2023-04-08T10:42:56.391Z,65.49
2023-04-08T10:45:24.116Z,64.20
2023-04-08T10:47:52.035Z,64.57
2023-04-08T10:50:20.506Z,63.82
2023-04-08T10:52:53.658Z,62.48
2023-04-08T10:55:25.553Z,62.77
2023-04-08T10:57:54.176Z,63.80
2023-04-08T11:00:36.960Z,64.39
2023-04-08T11:03:06.709Z,64.02
2023-04-08T11:05:36.817Z,63.18
2023-04-08T11:08:05.156Z,62.66
2023-04-08T11:10:38.558Z,62.85
2023-04-08T11:13:12.944Z,64.83
2023-04-08T11:15:40.736Z,63.32
2023-04-08T11:18:09.160Z,62.72
2023-04-08T11:20:37.232Z,64.14
2023-04-08T11:23:04.638Z,64.13
2023-04-08T11:25:32.427Z,62.81
2023-04-08T11:28:00.453Z,64.67
2023-04-08T11:30:28.967Z,62.15
2023-04-08T11:32:57.021Z,61.40
2023-04-08T11:35:24.657Z,61.66
2023-04-08T11:37:52.690Z,62.71
2023-04-08T11:40:22.261Z,62.17
2023-04-08T11:42:53.035Z,63.57
2023-04-08T11:45:21.586Z,61.94
2023-04-08T11:47:49.214Z,61.47
2023-04-08T11:50:26.923Z,61.61
2023-04-08T11:52:55.486Z,63.94
2023-04-08T11:55:30.746Z,62.33
2023-04-08T11:58:04.331Z,61.50
2023-04-08T12:00:33.155Z,60.90
2023-04-08T12:03:00.937Z,60.71
2023-04-08T12:05:28.444Z,61.24
2023-04-08T12:07:56.503Z,60.60
2023-04-08T12:10:25.288Z,59.07
2023-04-08T12:12:52.843Z,59.35
2023-04-08T12:15:20.909Z,59.65
2023-04-08T12:17:48.832Z,59.28
2023-04-08T12:20:17.357Z,58.43
2023-04-08T12:22:44.802Z,58.87
2023-04-08T12:25:12.469Z,57.94
2023-04-08T12:27:39.852Z,58.73
2023-04-08T12:30:07.936Z,59.14
2023-04-08T12:32:35.637Z,60.82
2023-04-08T12:35:03.104Z,61.20
2023-04-08T12:37:30.849Z,62.86
2023-04-08T12:39:58.555Z,61.23
2023-04-08T12:42:26.532Z,62.14
2023-04-08T12:44:54.022Z,61.18
2023-04-08T12:47:22.252Z,60.54
2023-04-08T12:49:51.102Z,60.21
2023-04-08T12:52:18.843Z,60.66
2023-04-08T12:54:46.568Z,60.14
2023-04-08T12:57:14.070Z,57.92
2023-04-08T12:59:41.705Z,60.50
2023-04-08T13:02:09.415Z,59.31
2023-04-08T13:04:36.789Z,60.56
2023-04-08T13:07:05.071Z,60.19
2023-04-08T13:09:32.827Z,59.78
2023-04-08T13:12:00.255Z,60.07
2023-04-08T13:14:27.676Z,59.47
2023-04-08T13:16:55.502Z,58.33
2023-04-08T13:19:22.945Z,59.40
2023-04-08T13:21:50.364Z,58.56
2023-04-08T13:24:18.242Z,57.87
2023-04-08T13:26:46.116Z,56.57
2023-04-08T13:29:13.545Z,58.26
2023-04-08T13:31:41.482Z,59.00
2023-04-08T13:34:08.965Z,60.19
2023-04-08T13:36:36.860Z,60.82
2023-04-08T13:39:04.633Z,59.25
2023-04-08T13:41:32.045Z,59.32
2023-04-08T13:43:59.444Z,59.13
2023-04-08T13:46:27.320Z,58.44
2023-04-08T13:48:54.871Z,59.73
2023-04-08T13:51:22.346Z,61.34
2023-04-08T13:53:50.031Z,62.02
2023-04-08T13:56:17.419Z,59.78
2023-04-08T13:58:49.668Z,61.25
2023-04-08T14:01:20.265Z,63.29
2023-04-08T14:03:49.948Z,62.20
2023-04-08T14:06:17.407Z,59.72
2023-04-08T14:08:44.850Z,59.14
2023-04-08T14:11:12.801Z,59.57
2023-04-08T14:13:40.435Z,58.53
2023-04-08T14:16:07.885Z,59.21
2023-04-08T14:18:35.626Z,59.47
2023-04-08T14:21:03.749Z,58.42
2023-04-08T14:23:31.188Z,59.71
2023-04-08T14:25:58.894Z,57.90
2023-04-08T14:28:28.451Z,59.70
2023-04-08T14:30:56.177Z,58.96
2023-04-08T14:33:24.002Z,57.79
2023-04-08T14:35:53.011Z,59.38
2023-04-08T14:38:21.426Z,60.17
2023-04-08T14:40:49.348Z,58.38
2023-04-08T14:43:16.776Z,57.65
2023-04-08T14:45:45.072Z,57.19
2023-04-08T14:48:12.946Z,58.74
2023-04-08T14:50:40.346Z,59.85
2023-04-08T14:53:07.831Z,58.86
2023-04-08T14:55:35.497Z,57.98
2023-04-08T14:58:03.015Z,57.17
2023-04-08T15:00:30.451Z,61.13
2023-04-08T15:02:58.942Z,59.71
2023-04-08T15:05:26.627Z,58.85
2023-04-08T15:07:54.225Z,59.80
2023-04-08T15:10:21.854Z,59.45
2023-04-08T15:12:49.229Z,57.69
2023-04-08T15:15:16.707Z,57.61
2023-04-08T15:17:44.450Z,56.83
2023-04-08T15:20:12.204Z,56.83
2023-04-08T15:22:39.813Z,56.59
2023-04-08T15:25:07.954Z,59.38
2023-04-08T15:27:36.383Z,57.32
2023-04-08T15:30:10.690Z,57.35
2023-04-08T15:32:41.729Z,56.15
2023-04-08T15:35:09.963Z,54.93
2023-04-08T15:37:37.415Z,56.86
2023-04-08T15:40:05.645Z,56.67
2023-04-08T15:42:33.200Z,58.06
2023-04-08T15:45:00.594Z,56.75
2023-04-08T15:47:28.468Z,57.34
2023-04-08T15:49:56.164Z,57.72
2023-04-08T15:52:23.600Z,58.13
2023-04-08T15:54:51.356Z,58.83
2023-04-08T15:57:18.741Z,59.38
2023-04-08T15:59:46.134Z,57.77
2023-04-08T16:02:13.947Z,57.23
2023-04-08T16:04:42.813Z,54.79
2023-04-08T16:07:10.420Z,55.65
2023-04-08T16:09:37.849Z,54.80
2023-04-08T16:12:05.557Z,54.71
2023-04-08T16:14:33.025Z,57.25
2023-04-08T16:17:00.379Z,56.67
2023-04-08T16:19:28.331Z,55.41
2023-04-08T16:21:55.978Z,55.74
2023-04-08T16:24:23.408Z,57.44
2023-04-08T16:26:51.214Z,57.45
2023-04-08T16:29:18.701Z,55.38
2023-04-08T16:31:46.109Z,56.52
2023-04-08T16:34:13.824Z,56.52
2023-04-08T16:36:41.240Z,58.17
2023-04-08T16:39:08.678Z,55.73
2023-04-08T16:41:36.755Z,55.01
2023-04-08T16:44:04.162Z,53.77
2023-04-08T16:46:31.541Z,55.39
2023-04-08T16:48:59.192Z,55.99
2023-04-08T16:51:26.736Z,54.89
2023-04-08T16:53:56.298Z,54.32
2023-04-08T16:56:26.153Z,52.73
2023-04-08T16:58:53.656Z,52.39
2023-04-08T17:01:21.121Z,52.36
2023-04-08T17:03:50.305Z,51.85
2023-04-08T17:06:18.335Z,52.32
2023-04-08T17:08:46.053Z,53.84
2023-04-08T17:11:15.054Z,54.21
2023-04-08T17:13:43.523Z,54.59
2023-04-08T17:16:16.222Z,56.92
2023-04-08T17:18:45.128Z,60.61
2023-04-08T17:21:14.080Z,60.80
2023-04-08T17:23:41.691Z,58.15
2023-04-08T17:26:10.066Z,58.88
2023-04-08T17:28:38.016Z,57.72
2023-04-08T17:31:05.435Z,56.93
2023-04-08T17:33:34.068Z,57.59
2023-04-08T17:36:01.584Z,55.96
2023-04-08T17:38:29.107Z,56.86
2023-04-08T17:40:56.801Z,56.01
2023-04-08T17:43:24.254Z,55.67
2023-04-08T17:45:51.997Z,55.18
2023-04-08T17:48:20.003Z,54.58
2023-04-08T17:50:47.613Z,54.00
2023-04-08T17:53:15.618Z,54.17
2023-04-08T17:55:43.294Z,54.31
2023-04-08T17:58:10.704Z,54.11
2023-04-08T18:00:38.124Z,54.25
2023-04-08T18:03:06.039Z,53.75
2023-04-08T18:05:33.569Z,53.53
2023-04-08T18:08:01.013Z,53.38
2023-04-08T18:10:28.835Z,53.03
2023-04-08T18:13:10.285Z,52.70
2023-04-08T18:15:38.898Z,52.76
2023-04-08T18:18:06.329Z,52.64
2023-04-08T18:20:37.150Z,52.12
2023-04-08T18:23:05.069Z,52.08
2023-04-08T18:25:32.696Z,51.78
2023-04-08T18:28:00.273Z,51.84
2023-04-08T18:30:28.020Z,51.89
2023-04-08T18:32:55.643Z,51.95
2023-04-08T18:35:24.474Z,51.78
2023-04-08T18:37:52.211Z,52.03
2023-04-08T18:40:20.256Z,51.73
2023-04-08T18:42:47.637Z,51.94
2023-04-08T18:45:15.442Z,51.96
2023-04-08T18:47:42.902Z,52.11
2023-04-08T18:50:10.803Z,51.74
2023-04-08T18:52:39.020Z,51.43
2023-04-08T18:55:06.579Z,51.69
2023-04-08T18:57:34.546Z,51.88
2023-04-08T19:00:02.273Z,52.12
2023-04-08T19:02:29.739Z,51.68
2023-04-08T19:04:58.131Z,52.40
2023-04-08T19:07:26.356Z,51.56
2023-04-08T19:09:59.992Z,51.74
2023-04-08T19:12:27.823Z,51.99
2023-04-08T19:14:55.228Z,52.00
2023-04-08T19:17:22.620Z,51.77
2023-04-08T19:19:50.376Z,51.75
2023-04-08T19:22:17.856Z,52.23
2023-04-08T19:24:45.249Z,52.00
2023-04-08T19:27:14.434Z,51.39
2023-04-08T19:29:41.906Z,51.62
2023-04-08T19:32:09.616Z,52.07
2023-04-08T19:34:38.533Z,51.85
2023-04-08T19:37:07.205Z,52.08
2023-04-08T19:39:34.877Z,52.22
2023-04-08T19:42:02.605Z,51.84
2023-04-08T19:44:29.991Z,51.73
2023-04-08T19:46:57.910Z,51.93
2023-04-08T19:49:25.643Z,51.74
2023-04-08T19:51:53.103Z,51.60
2023-04-08T19:54:20.540Z,51.68
2023-04-08T19:56:48.415Z,51.88
2023-04-08T19:59:16.269Z,51.69
2023-04-08T20:01:43.890Z,51.43
2023-04-08T20:04:11.819Z,51.23
2023-04-08T20:06:39.309Z,52.02
2023-04-08T20:09:06.949Z,51.91
2023-04-08T20:11:34.731Z,51.96
2023-04-08T20:14:03.657Z,51.68
2023-04-08T20:16:31.972Z,52.02
2023-04-08T20:18:59.826Z,51.58
2023-04-08T20:21:27.848Z,51.31
2023-04-08T20:23:55.732Z,51.45
2023-04-08T20:26:23.468Z,51.71
2023-04-08T20:28:50.942Z,51.56
2023-04-08T20:31:19.313Z,51.37
2023-04-08T20:33:47.032Z,51.29
2023-04-08T20:36:14.479Z,51.22
2023-04-08T20:38:42.493Z,51.11
2023-04-08T20:41:10.540Z,51.52
2023-04-08T20:43:39.435Z,51.51
2023-04-08T20:46:07.527Z,51.43
2023-04-08T20:48:36.109Z,51.41
2023-04-08T20:51:03.560Z,51.10
2023-04-08T20:53:31.469Z,51.23
2023-04-08T20:55:59.191Z,51.47
2023-04-08T20:58:26.835Z,51.76
2023-04-08T21:00:54.377Z,51.93
2023-04-08T21:03:22.387Z,52.20
2023-04-08T21:05:50.221Z,51.48
2023-04-08T21:08:17.860Z,51.48
2023-04-08T21:10:45.535Z,51.51
2023-04-08T21:13:13.014Z,51.33
2023-04-08T21:15:40.509Z,51.33
2023-04-08T21:18:11.087Z,51.68
2023-04-08T21:20:41.414Z,51.22
2023-04-08T21:23:09.113Z,51.28
2023-04-08T21:25:36.515Z,51.42
2023-04-08T21:28:03.917Z,51.65
2023-04-08T21:30:31.555Z,51.49
2023-04-08T21:32:58.931Z,51.59
2023-04-08T21:35:26.531Z,51.34
2023-04-08T21:37:54.158Z,51.35
2023-04-08T21:40:21.686Z,51.24
2023-04-08T21:42:49.132Z,51.06
2023-04-08T21:45:17.025Z,50.84
2023-04-08T21:47:44.585Z,51.34
2023-04-08T21:50:12.022Z,50.84
2023-04-08T21:52:41.577Z,51.02
2023-04-08T21:55:10.483Z,50.92
2023-04-08T21:57:37.953Z,50.68
2023-04-08T22:00:13.200Z,51.00
2023-04-08T22:02:42.997Z,51.03
2023-04-08T22:05:11.523Z,51.23
2023-04-08T22:07:38.998Z,51.22
2023-04-08T22:10:07.416Z,51.56
2023-04-08T22:12:35.122Z,51.34
2023-04-08T22:15:03.033Z,51.35
2023-04-08T22:17:30.463Z,51.40
2023-04-08T22:19:58.131Z,51.39
2023-04-08T22:22:25.504Z,51.42
2023-04-08T22:24:52.902Z,51.38
2023-04-08T22:27:20.545Z,50.74
2023-04-08T22:29:47.958Z,50.47
2023-04-08T22:32:15.563Z,50.66
2023-04-08T22:34:43.282Z,51.17
2023-04-08T22:37:10.762Z,50.86
2023-04-08T22:39:38.134Z,51.46
2023-04-08T22:42:05.813Z,51.28
2023-04-08T22:44:33.342Z,50.59
2023-04-08T22:47:00.743Z,50.96
2023-04-08T22:49:28.419Z,50.71
2023-04-08T22:51:55.844Z,51.57
2023-04-08T22:54:23.255Z,51.28
2023-04-08T22:56:51.060Z,51.36
2023-04-08T22:59:18.452Z,51.37
2023-04-08T23:01:46.153Z,51.61
2023-04-08T23:04:13.909Z,51.00
2023-04-08T23:06:41.349Z,51.29
2023-04-08T23:09:08.743Z,51.12
2023-04-08T23:11:36.378Z,50.94
2023-04-08T23:14:03.822Z,50.55
2023-04-08T23:16:31.640Z,50.71
2023-04-08T23:18:59.310Z,50.41
2023-04-08T23:21:27.085Z,50.43
2023-04-08T23:23:54.581Z,50.70
2023-04-08T23:26:22.382Z,50.76
2023-04-08T23:28:49.965Z,51.23
2023-04-08T23:31:17.607Z,50.88
2023-04-08T23:33:45.549Z,50.58
2023-04-08T23:36:13.119Z,50.58
2023-04-08T23:38:40.748Z,50.58
2023-04-08T23:41:08.415Z,50.46
2023-04-08T23:43:36.453Z,50.91
2023-04-08T23:46:03.917Z,50.39
2023-04-08T23:48:31.577Z,50.57
2023-04-08T23:50:58.941Z,50.16
2023-04-08T23:53:26.336Z,50.01
2023-04-08T23:55:54.028Z,50.21
2023-04-08T23:58:21.496Z,50.47
